Atlantic Beach, South Carolina
Current Conditions -  °F | °C
As of 5:06 PM on Tuesday 25 Nov 2014 (Local Time) from KCRE Reporting Station
Light Rain Light Rain  
Wind Chill: 64°   Ceiling: 8000
Heat Index: 64°   Visibility: 8mi
Dew Point: 62°   Wind: 6mph
Humidity: 93%   Direction: 90°E
Pressure: 30.02"   Gusts: NA
Location:  33.8371°N, 78.6471°W
Report Text: KCRE 252206Z 09005KT 8SM -RA SCT005 OVC080 18/17 A3002 RMK AO1 P0000 T01780167
Loading
Personal Weather Stations






























Interactive Weather Map New forecast layout! Learn more

10-Day Weather Forecast

Advertisements
Track Severe Weather on mobile